sensor_id;sensor_type;location;lat;lon;timestamp;temperature;humidity
10304;DHT22;5197;48.152;8.590;2023-12-04T00:01:16;-7.10;15.90
10304;DHT22;5197;48.152;8.590;2023-12-04T00:03:43;-7.10;16.10
10304;DHT22;5197;48.152;8.590;2023-12-04T00:06:11;-7.10;16.10
10304;DHT22;5197;48.152;8.590;2023-12-04T00:08:39;-7.10;17.10
10304;DHT22;5197;48.152;8.590;2023-12-04T00:11:06;-7.10;16.00
10304;DHT22;5197;48.152;8.590;2023-12-04T00:13:33;-7.00;16.10
10304;DHT22;5197;48.152;8.590;2023-12-04T00:16:01;-7.00;16.10
10304;DHT22;5197;48.152;8.590;2023-12-04T00:18:29;-7.00;16.10
10304;DHT22;5197;48.152;8.590;2023-12-04T00:20:56;-7.00;16.30
10304;DHT22;5197;48.152;8.590;2023-12-04T00:23:23;-6.90;16.20
10304;DHT22;5197;48.152;8.590;2023-12-04T00:25:51;-6.90;16.30
10304;DHT22;5197;48.152;8.590;2023-12-04T00:28:18;-6.90;16.00
10304;DHT22;5197;48.152;8.590;2023-12-04T00:30:46;-6.90;15.90
10304;DHT22;5197;48.152;8.590;2023-12-04T00:33:13;-6.90;15.60
10304;DHT22;5197;48.152;8.590;2023-12-04T00:35:40;-7.00;15.50
10304;DHT22;5197;48.152;8.590;2023-12-04T00:38:07;-7.00;15.30
10304;DHT22;5197;48.152;8.590;2023-12-04T00:40:34;-7.10;15.40
10304;DHT22;5197;48.152;8.590;2023-12-04T00:43:01;-7.20;15.40
10304;DHT22;5197;48.152;8.590;2023-12-04T00:45:28;-7.20;15.70
10304;DHT22;5197;48.152;8.590;2023-12-04T00:47:55;-7.20;15.80
10304;DHT22;5197;48.152;8.590;2023-12-04T00:50:22;-7.30;15.90
10304;DHT22;5197;48.152;8.590;2023-12-04T00:52:49;-7.30;16.00
10304;DHT22;5197;48.152;8.590;2023-12-04T00:55:16;-7.30;16.20
10304;DHT22;5197;48.152;8.590;2023-12-04T00:57:43;-7.30;16.20
10304;DHT22;5197;48.152;8.590;2023-12-04T01:00:10;-7.40;16.00
10304;DHT22;5197;48.152;8.590;2023-12-04T01:02:38;-7.40;16.20
10304;DHT22;5197;48.152;8.590;2023-12-04T01:05:05;-7.40;16.30
10304;DHT22;5197;48.152;8.590;2023-12-04T01:07:32;-7.30;16.40
10304;DHT22;5197;48.152;8.590;2023-12-04T01:09:59;-7.30;16.50
10304;DHT22;5197;48.152;8.590;2023-12-04T01:12:26;-7.20;16.80
10304;DHT22;5197;48.152;8.590;2023-12-04T01:14:53;-7.20;16.80
10304;DHT22;5197;48.152;8.590;2023-12-04T01:17:20;-7.10;16.80
10304;DHT22;5197;48.152;8.590;2023-12-04T01:19:47;-7.00;16.90
10304;DHT22;5197;48.152;8.590;2023-12-04T01:22:14;-7.00;16.80
10304;DHT22;5197;48.152;8.590;2023-12-04T01:24:42;-6.90;16.80
10304;DHT22;5197;48.152;8.590;2023-12-04T01:27:09;-6.90;16.70
10304;DHT22;5197;48.152;8.590;2023-12-04T01:29:36;-6.80;16.50
10304;DHT22;5197;48.152;8.590;2023-12-04T01:32:03;-6.80;16.40
10304;DHT22;5197;48.152;8.590;2023-12-04T01:34:30;-6.70;16.30
10304;DHT22;5197;48.152;8.590;2023-12-04T01:36:57;-6.70;16.20
10304;DHT22;5197;48.152;8.590;2023-12-04T01:39:24;-6.70;16.20
10304;DHT22;5197;48.152;8.590;2023-12-04T01:41:51;-6.70;16.10
10304;DHT22;5197;48.152;8.590;2023-12-04T01:44:19;-6.70;16.00
10304;DHT22;5197;48.152;8.590;2023-12-04T01:46:46;-6.70;17.00
10304;DHT22;5197;48.152;8.590;2023-12-04T01:49:13;-6.70;16.10
10304;DHT22;5197;48.152;8.590;2023-12-04T01:51:40;-6.70;16.00
10304;DHT22;5197;48.152;8.590;2023-12-04T01:54:09;-6.70;16.00
10304;DHT22;5197;48.152;8.590;2023-12-04T01:56:36;-6.80;15.90
10304;DHT22;5197;48.152;8.590;2023-12-04T01:59:04;-6.80;16.00
10304;DHT22;5197;48.152;8.590;2023-12-04T02:01:32;-6.80;16.10
10304;DHT22;5197;48.152;8.590;2023-12-04T02:04:00;-6.80;16.10
10304;DHT22;5197;48.152;8.590;2023-12-04T02:06:28;-6.80;16.20
10304;DHT22;5197;48.152;8.590;2023-12-04T02:08:56;-6.80;16.30
10304;DHT22;5197;48.152;8.590;2023-12-04T02:11:24;-6.80;16.50
10304;DHT22;5197;48.152;8.590;2023-12-04T02:13:51;-6.80;16.50
10304;DHT22;5197;48.152;8.590;2023-12-04T02:16:18;-6.70;16.70
10304;DHT22;5197;48.152;8.590;2023-12-04T02:18:46;-6.70;16.70
10304;DHT22;5197;48.152;8.590;2023-12-04T02:21:14;-6.60;16.70
10304;DHT22;5197;48.152;8.590;2023-12-04T02:23:41;-6.60;16.70
10304;DHT22;5197;48.152;8.590;2023-12-04T02:26:15;-6.60;16.70
10304;DHT22;5197;48.152;8.590;2023-12-04T02:28:48;-6.60;16.50
10304;DHT22;5197;48.152;8.590;2023-12-04T02:31:18;-6.60;16.50
10304;DHT22;5197;48.152;8.590;2023-12-04T02:33:47;-6.50;16.70
10304;DHT22;5197;48.152;8.590;2023-12-04T02:36:15;-6.50;16.70
10304;DHT22;5197;48.152;8.590;2023-12-04T02:38:42;-6.50;16.60
10304;DHT22;5197;48.152;8.590;2023-12-04T02:41:09;-6.50;16.70
10304;DHT22;5197;48.152;8.590;2023-12-04T02:43:36;-6.50;16.70
10304;DHT22;5197;48.152;8.590;2023-12-04T02:46:03;-6.50;16.60
10304;DHT22;5197;48.152;8.590;2023-12-04T02:48:31;-6.40;16.60
10304;DHT22;5197;48.152;8.590;2023-12-04T02:50:58;-6.40;16.60
10304;DHT22;5197;48.152;8.590;2023-12-04T02:53:25;-6.40;17.60
10304;DHT22;5197;48.152;8.590;2023-12-04T02:55:52;-6.40;16.60
10304;DHT22;5197;48.152;8.590;2023-12-04T02:58:19;-6.40;16.70
10304;DHT22;5197;48.152;8.590;2023-12-04T03:00:46;-6.40;16.70
10304;DHT22;5197;48.152;8.590;2023-12-04T03:03:13;-6.50;17.40
10304;DHT22;5197;48.152;8.590;2023-12-04T03:05:40;-6.50;16.50
10304;DHT22;5197;48.152;8.590;2023-12-04T03:08:07;-6.50;16.60
10304;DHT22;5197;48.152;8.590;2023-12-04T03:10:34;-6.50;16.80
10304;DHT22;5197;48.152;8.590;2023-12-04T03:13:01;-6.50;17.00
10304;DHT22;5197;48.152;8.590;2023-12-04T03:15:28;-6.50;17.10
10304;DHT22;5197;48.152;8.590;2023-12-04T03:17:59;-6.50;17.10
10304;DHT22;5197;48.152;8.590;2023-12-04T03:20:32;-6.40;17.10
10304;DHT22;5197;48.152;8.590;2023-12-04T03:22:59;-6.40;17.10
10304;DHT22;5197;48.152;8.590;2023-12-04T03:25:26;-6.40;17.30
10304;DHT22;5197;48.152;8.590;2023-12-04T03:27:53;-6.30;17.30
10304;DHT22;5197;48.152;8.590;2023-12-04T03:30:20;-6.30;17.20
10304;DHT22;5197;48.152;8.590;2023-12-04T03:32:47;-6.30;17.20
10304;DHT22;5197;48.152;8.590;2023-12-04T03:35:14;-6.20;17.50
10304;DHT22;5197;48.152;8.590;2023-12-04T03:37:41;-6.20;17.50
10304;DHT22;5197;48.152;8.590;2023-12-04T03:40:08;-6.20;17.40
10304;DHT22;5197;48.152;8.590;2023-12-04T03:42:35;-6.10;17.40
10304;DHT22;5197;48.152;8.590;2023-12-04T03:45:03;-6.10;17.40
10304;DHT22;5197;48.152;8.590;2023-12-04T03:47:30;-6.00;17.20
10304;DHT22;5197;48.152;8.590;2023-12-04T03:49:57;-6.00;17.30
10304;DHT22;5197;48.152;8.590;2023-12-04T03:52:24;-5.90;17.30
10304;DHT22;5197;48.152;8.590;2023-12-04T03:54:51;-6.00;17.10
10304;DHT22;5197;48.152;8.590;2023-12-04T03:57:19;-6.00;17.00
10304;DHT22;5197;48.152;8.590;2023-12-04T03:59:45;-6.00;17.10
10304;DHT22;5197;48.152;8.590;2023-12-04T04:02:12;-6.00;17.10
10304;DHT22;5197;48.152;8.590;2023-12-04T04:04:40;-6.00;17.10
10304;DHT22;5197;48.152;8.590;2023-12-04T04:07:07;-5.90;17.20
10304;DHT22;5197;48.152;8.590;2023-12-04T04:09:34;-5.90;17.40
10304;DHT22;5197;48.152;8.590;2023-12-04T04:12:01;-5.90;17.50
10304;DHT22;5197;48.152;8.590;2023-12-04T04:14:29;-5.90;17.40
10304;DHT22;5197;48.152;8.590;2023-12-04T04:16:56;-5.90;17.30
10304;DHT22;5197;48.152;8.590;2023-12-04T04:19:23;-5.90;17.30
10304;DHT22;5197;48.152;8.590;2023-12-04T04:21:51;-5.90;17.40
10304;DHT22;5197;48.152;8.590;2023-12-04T04:24:18;-5.90;17.30
10304;DHT22;5197;48.152;8.590;2023-12-04T04:26:45;-5.90;17.30
10304;DHT22;5197;48.152;8.590;2023-12-04T04:29:12;-5.90;17.30
10304;DHT22;5197;48.152;8.590;2023-12-04T04:31:39;-5.90;17.40
10304;DHT22;5197;48.152;8.590;2023-12-04T04:34:06;-5.90;17.50
10304;DHT22;5197;48.152;8.590;2023-12-04T04:36:33;-5.90;17.40
10304;DHT22;5197;48.152;8.590;2023-12-04T04:39:03;-5.90;17.40
10304;DHT22;5197;48.152;8.590;2023-12-04T04:41:30;-5.80;17.60
10304;DHT22;5197;48.152;8.590;2023-12-04T04:43:57;-5.80;17.60
10304;DHT22;5197;48.152;8.590;2023-12-04T04:46:24;-5.80;17.60
10304;DHT22;5197;48.152;8.590;2023-12-04T04:48:53;-5.80;17.60
10304;DHT22;5197;48.152;8.590;2023-12-04T04:51:21;-5.80;17.60
10304;DHT22;5197;48.152;8.590;2023-12-04T04:53:48;-5.80;17.50
10304;DHT22;5197;48.152;8.590;2023-12-04T04:56:15;-5.80;17.60
10304;DHT22;5197;48.152;8.590;2023-12-04T04:58:42;-5.80;17.70
10304;DHT22;5197;48.152;8.590;2023-12-04T05:01:09;-5.70;17.50
10304;DHT22;5197;48.152;8.590;2023-12-04T05:03:37;-5.70;17.60
10304;DHT22;5197;48.152;8.590;2023-12-04T05:06:04;-5.70;17.30
10304;DHT22;5197;48.152;8.590;2023-12-04T05:08:31;-5.70;17.50
10304;DHT22;5197;48.152;8.590;2023-12-04T05:10:58;-5.70;17.60
10304;DHT22;5197;48.152;8.590;2023-12-04T05:13:25;-5.70;17.50
10304;DHT22;5197;48.152;8.590;2023-12-04T05:15:52;-5.70;17.40
10304;DHT22;5197;48.152;8.590;2023-12-04T05:18:19;-5.60;17.40
10304;DHT22;5197;48.152;8.590;2023-12-04T05:20:46;-5.60;17.30
10304;DHT22;5197;48.152;8.590;2023-12-04T05:23:13;-5.60;17.30
10304;DHT22;5197;48.152;8.590;2023-12-04T05:25:40;-5.60;17.30
10304;DHT22;5197;48.152;8.590;2023-12-04T05:28:16;-5.50;17.40
10304;DHT22;5197;48.152;8.590;2023-12-04T05:30:43;-5.70;17.20
10304;DHT22;5197;48.152;8.590;2023-12-04T05:33:10;-5.70;17.30
10304;DHT22;5197;48.152;8.590;2023-12-04T05:35:37;-5.60;17.50
10304;DHT22;5197;48.152;8.590;2023-12-04T05:38:05;-5.60;17.30
10304;DHT22;5197;48.152;8.590;2023-12-04T05:40:32;-5.60;17.40
10304;DHT22;5197;48.152;8.590;2023-12-04T05:42:59;-5.70;16.70
10304;DHT22;5197;48.152;8.590;2023-12-04T05:45:26;-5.70;17.30
10304;DHT22;5197;48.152;8.590;2023-12-04T05:47:53;-5.70;17.40
10304;DHT22;5197;48.152;8.590;2023-12-04T05:50:21;-5.70;17.40
10304;DHT22;5197;48.152;8.590;2023-12-04T05:52:47;-5.70;17.40
10304;DHT22;5197;48.152;8.590;2023-12-04T05:55:14;-5.70;17.40
10304;DHT22;5197;48.152;8.590;2023-12-04T05:57:43;-5.70;17.60
10304;DHT22;5197;48.152;8.590;2023-12-04T06:00:10;-5.70;17.40
10304;DHT22;5197;48.152;8.590;2023-12-04T06:02:42;-5.80;17.40
10304;DHT22;5197;48.152;8.590;2023-12-04T06:05:09;-5.80;17.40
10304;DHT22;5197;48.152;8.590;2023-12-04T06:07:37;-5.80;17.40
10304;DHT22;5197;48.152;8.590;2023-12-04T06:10:05;-5.80;17.70
10304;DHT22;5197;48.152;8.590;2023-12-04T06:12:32;-5.80;17.60
10304;DHT22;5197;48.152;8.590;2023-12-04T06:15:00;-5.80;17.70
10304;DHT22;5197;48.152;8.590;2023-12-04T06:17:27;-5.80;17.50
10304;DHT22;5197;48.152;8.590;2023-12-04T06:19:54;-5.80;18.60
10304;DHT22;5197;48.152;8.590;2023-12-04T06:22:22;-5.80;17.60
10304;DHT22;5197;48.152;8.590;2023-12-04T06:24:49;-5.80;17.60
10304;DHT22;5197;48.152;8.590;2023-12-04T06:27:17;-5.80;17.60
10304;DHT22;5197;48.152;8.590;2023-12-04T06:29:48;-5.80;17.50
10304;DHT22;5197;48.152;8.590;2023-12-04T06:32:19;-5.80;17.60
10304;DHT22;5197;48.152;8.590;2023-12-04T06:34:47;-5.80;17.60
10304;DHT22;5197;48.152;8.590;2023-12-04T06:37:14;-5.80;17.70
10304;DHT22;5197;48.152;8.590;2023-12-04T06:39:42;-5.80;17.70
10304;DHT22;5197;48.152;8.590;2023-12-04T06:42:12;-5.80;17.70
10304;DHT22;5197;48.152;8.590;2023-12-04T06:44:39;-5.70;17.80
10304;DHT22;5197;48.152;8.590;2023-12-04T06:47:08;-5.70;17.80
10304;DHT22;5197;48.152;8.590;2023-12-04T06:49:35;-5.70;17.80
10304;DHT22;5197;48.152;8.590;2023-12-04T06:52:02;-5.70;17.70
10304;DHT22;5197;48.152;8.590;2023-12-04T06:54:30;-5.70;17.70
10304;DHT22;5197;48.152;8.590;2023-12-04T06:56:57;-5.60;18.80
10304;DHT22;5197;48.152;8.590;2023-12-04T06:59:24;-5.60;17.60
10304;DHT22;5197;48.152;8.590;2023-12-04T07:01:51;-5.60;17.70
10304;DHT22;5197;48.152;8.590;2023-12-04T07:04:19;-5.60;17.50
10304;DHT22;5197;48.152;8.590;2023-12-04T07:06:49;-5.60;17.40
10304;DHT22;5197;48.152;8.590;2023-12-04T07:09:16;-5.50;17.70
10304;DHT22;5197;48.152;8.590;2023-12-04T07:11:44;-5.60;17.60
10304;DHT22;5197;48.152;8.590;2023-12-04T07:14:11;-5.50;17.90
10304;DHT22;5197;48.152;8.590;2023-12-04T07:16:42;-5.50;18.80
10304;DHT22;5197;48.152;8.590;2023-12-04T07:19:10;-5.40;18.00
10304;DHT22;5197;48.152;8.590;2023-12-04T07:21:38;-5.40;17.90
10304;DHT22;5197;48.152;8.590;2023-12-04T07:24:06;-5.40;18.10
10304;DHT22;5197;48.152;8.590;2023-12-04T07:26:36;-5.30;18.20
10304;DHT22;5197;48.152;8.590;2023-12-04T07:29:11;-5.30;18.20
10304;DHT22;5197;48.152;8.590;2023-12-04T07:31:38;-5.20;18.30
10304;DHT22;5197;48.152;8.590;2023-12-04T07:34:05;-5.20;18.20
10304;DHT22;5197;48.152;8.590;2023-12-04T07:36:33;-5.10;18.40
10304;DHT22;5197;48.152;8.590;2023-12-04T07:39:00;-4.90;18.40
10304;DHT22;5197;48.152;8.590;2023-12-04T07:41:27;-5.00;18.00
10304;DHT22;5197;48.152;8.590;2023-12-04T07:43:54;-5.00;17.90
10304;DHT22;5197;48.152;8.590;2023-12-04T07:46:21;-4.90;18.60
10304;DHT22;5197;48.152;8.590;2023-12-04T07:48:48;-4.80;18.30
10304;DHT22;5197;48.152;8.590;2023-12-04T07:51:16;-4.80;17.90
10304;DHT22;5197;48.152;8.590;2023-12-04T07:53:43;-4.70;18.00
10304;DHT22;5197;48.152;8.590;2023-12-04T07:56:11;-4.70;18.00
10304;DHT22;5197;48.152;8.590;2023-12-04T07:58:39;-4.70;17.90
10304;DHT22;5197;48.152;8.590;2023-12-04T08:01:06;-4.70;18.00
10304;DHT22;5197;48.152;8.590;2023-12-04T08:03:34;-4.60;18.00
10304;DHT22;5197;48.152;8.590;2023-12-04T08:06:01;-4.60;18.10
10304;DHT22;5197;48.152;8.590;2023-12-04T08:08:28;-4.60;18.00
10304;DHT22;5197;48.152;8.590;2023-12-04T08:10:55;-4.50;18.10
10304;DHT22;5197;48.152;8.590;2023-12-04T08:13:22;-4.50;17.90
10304;DHT22;5197;48.152;8.590;2023-12-04T08:15:49;-4.40;18.00
10304;DHT22;5197;48.152;8.590;2023-12-04T08:18:17;-4.40;17.90
10304;DHT22;5197;48.152;8.590;2023-12-04T08:20:44;-4.40;17.90
10304;DHT22;5197;48.152;8.590;2023-12-04T08:23:11;-4.40;18.00
10304;DHT22;5197;48.152;8.590;2023-12-04T08:25:38;-4.40;18.00
10304;DHT22;5197;48.152;8.590;2023-12-04T08:28:06;-4.40;18.20
10304;DHT22;5197;48.152;8.590;2023-12-04T08:30:38;-4.40;18.30
10304;DHT22;5197;48.152;8.590;2023-12-04T08:33:05;-4.20;18.40
10304;DHT22;5197;48.152;8.590;2023-12-04T08:35:32;-4.20;18.40
10304;DHT22;5197;48.152;8.590;2023-12-04T08:37:59;-4.10;18.50
10304;DHT22;5197;48.152;8.590;2023-12-04T08:40:26;-4.10;18.20
10304;DHT22;5197;48.152;8.590;2023-12-04T08:42:53;-4.00;18.20
10304;DHT22;5197;48.152;8.590;2023-12-04T08:45:20;-4.00;18.00
10304;DHT22;5197;48.152;8.590;2023-12-04T08:47:47;-3.90;18.10
10304;DHT22;5197;48.152;8.590;2023-12-04T08:50:16;-3.90;18.00
10304;DHT22;5197;48.152;8.590;2023-12-04T08:52:43;-3.80;17.90
10304;DHT22;5197;48.152;8.590;2023-12-04T08:58:59;-3.80;17.70
10304;DHT22;5197;48.152;8.590;2023-12-04T09:01:26;-3.70;17.70
10304;DHT22;5197;48.152;8.590;2023-12-04T09:03:53;-3.70;17.80
10304;DHT22;5197;48.152;8.590;2023-12-04T09:06:20;-3.80;17.70
10304;DHT22;5197;48.152;8.590;2023-12-04T09:09:07;-3.80;18.10
10304;DHT22;5197;48.152;8.590;2023-12-04T09:11:43;-3.70;18.20
10304;DHT22;5197;48.152;8.590;2023-12-04T09:14:10;-3.70;18.30
10304;DHT22;5197;48.152;8.590;2023-12-04T09:16:38;-3.60;18.20
10304;DHT22;5197;48.152;8.590;2023-12-04T09:19:05;-3.60;18.30
10304;DHT22;5197;48.152;8.590;2023-12-04T09:21:32;-3.50;18.40
10304;DHT22;5197;48.152;8.590;2023-12-04T09:23:59;-3.50;18.20
10304;DHT22;5197;48.152;8.590;2023-12-04T09:26:27;-3.40;18.30
10304;DHT22;5197;48.152;8.590;2023-12-04T09:28:54;-3.30;18.20
10304;DHT22;5197;48.152;8.590;2023-12-04T09:31:21;-3.30;18.00
10304;DHT22;5197;48.152;8.590;2023-12-04T09:33:48;-3.10;18.30
10304;DHT22;5197;48.152;8.590;2023-12-04T09:36:15;-3.20;18.10
10304;DHT22;5197;48.152;8.590;2023-12-04T09:38:43;-3.10;18.20
10304;DHT22;5197;48.152;8.590;2023-12-04T09:41:12;-3.00;18.50
10304;DHT22;5197;48.152;8.590;2023-12-04T09:43:39;-3.00;17.90
10304;DHT22;5197;48.152;8.590;2023-12-04T09:46:08;-2.90;17.70
10304;DHT22;5197;48.152;8.590;2023-12-04T09:48:37;-2.80;17.50
10304;DHT22;5197;48.152;8.590;2023-12-04T09:51:06;-2.80;17.20
10304;DHT22;5197;48.152;8.590;2023-12-04T09:53:35;-2.80;16.90
10304;DHT22;5197;48.152;8.590;2023-12-04T09:56:03;-2.80;17.10
10304;DHT22;5197;48.152;8.590;2023-12-04T09:58:31;-2.80;17.00
10304;DHT22;5197;48.152;8.590;2023-12-04T10:01:03;-2.80;17.10
10304;DHT22;5197;48.152;8.590;2023-12-04T10:03:30;-2.80;17.00
10304;DHT22;5197;48.152;8.590;2023-12-04T10:05:58;-2.70;16.40
10304;DHT22;5197;48.152;8.590;2023-12-04T10:08:25;-2.70;17.20
10304;DHT22;5197;48.152;8.590;2023-12-04T10:10:52;-2.70;17.40
10304;DHT22;5197;48.152;8.590;2023-12-04T10:13:19;-2.70;16.90
10304;DHT22;5197;48.152;8.590;2023-12-04T10:16:07;-2.70;16.80
10304;DHT22;5197;48.152;8.590;2023-12-04T10:18:34;-2.60;17.00
10304;DHT22;5197;48.152;8.590;2023-12-04T10:21:03;-1.30;17.60
10304;DHT22;5197;48.152;8.590;2023-12-04T10:23:41;-2.50;16.70
10304;DHT22;5197;48.152;8.590;2023-12-04T10:26:09;-2.40;16.80
10304;DHT22;5197;48.152;8.590;2023-12-04T10:28:36;-2.50;16.80
10304;DHT22;5197;48.152;8.590;2023-12-04T10:31:03;-2.40;16.90
10304;DHT22;5197;48.152;8.590;2023-12-04T10:33:33;-2.40;16.70
10304;DHT22;5197;48.152;8.590;2023-12-04T10:36:00;-2.40;16.80
10304;DHT22;5197;48.152;8.590;2023-12-04T10:38:30;-2.30;16.90
10304;DHT22;5197;48.152;8.590;2023-12-04T10:41:12;-2.30;16.90
10304;DHT22;5197;48.152;8.590;2023-12-04T10:43:47;-2.20;16.90
10304;DHT22;5197;48.152;8.590;2023-12-04T10:46:24;-2.20;17.00
10304;DHT22;5197;48.152;8.590;2023-12-04T10:48:51;-2.10;17.20
10304;DHT22;5197;48.152;8.590;2023-12-04T10:51:19;-2.00;17.40
10304;DHT22;5197;48.152;8.590;2023-12-04T10:53:48;-1.90;17.50
10304;DHT22;5197;48.152;8.590;2023-12-04T10:56:25;-1.80;17.50
10304;DHT22;5197;48.152;8.590;2023-12-04T10:58:55;-1.60;17.50
10304;DHT22;5197;48.152;8.590;2023-12-04T11:01:25;-1.50;17.20
10304;DHT22;5197;48.152;8.590;2023-12-04T11:03:54;-1.30;16.90
10304;DHT22;5197;48.152;8.590;2023-12-04T11:06:24;-1.20;16.50
10304;DHT22;5197;48.152;8.590;2023-12-04T11:08:56;-1.20;16.30
10304;DHT22;5197;48.152;8.590;2023-12-04T11:11:30;-1.10;16.20
10304;DHT22;5197;48.152;8.590;2023-12-04T11:14:01;-1.00;16.20
10304;DHT22;5197;48.152;8.590;2023-12-04T11:16:49;-0.90;16.10
10304;DHT22;5197;48.152;8.590;2023-12-04T11:19:27;-0.90;15.90
10304;DHT22;5197;48.152;8.590;2023-12-04T11:21:58;-0.80;15.90
10304;DHT22;5197;48.152;8.590;2023-12-04T11:24:26;-0.70;15.60
10304;DHT22;5197;48.152;8.590;2023-12-04T11:26:54;-0.70;14.90
10304;DHT22;5197;48.152;8.590;2023-12-04T11:29:47;-0.70;14.90
10304;DHT22;5197;48.152;8.590;2023-12-04T11:32:15;-0.60;14.90
10304;DHT22;5197;48.152;8.590;2023-12-04T11:34:50;-0.60;15.00
10304;DHT22;5197;48.152;8.590;2023-12-04T11:37:19;-0.60;14.90
10304;DHT22;5197;48.152;8.590;2023-12-04T11:39:49;-0.60;14.90
10304;DHT22;5197;48.152;8.590;2023-12-04T11:42:23;-0.60;14.90
10304;DHT22;5197;48.152;8.590;2023-12-04T11:44:57;-0.50;14.90
10304;DHT22;5197;48.152;8.590;2023-12-04T11:47:25;-0.40;14.90
10304;DHT22;5197;48.152;8.590;2023-12-04T11:49:54;-0.40;14.90
10304;DHT22;5197;48.152;8.590;2023-12-04T11:52:32;-0.40;15.20
10304;DHT22;5197;48.152;8.590;2023-12-04T11:55:03;-0.40;14.90
10304;DHT22;5197;48.152;8.590;2023-12-04T11:57:40;-0.30;15.10
10304;DHT22;5197;48.152;8.590;2023-12-04T12:00:11;-0.30;15.00
10304;DHT22;5197;48.152;8.590;2023-12-04T12:02:41;-0.30;15.00
10304;DHT22;5197;48.152;8.590;2023-12-04T12:05:33;-0.30;15.00
10304;DHT22;5197;48.152;8.590;2023-12-04T12:08:05;-0.20;15.10
10304;DHT22;5197;48.152;8.590;2023-12-04T12:10:34;-0.20;15.10
10304;DHT22;5197;48.152;8.590;2023-12-04T12:13:02;-0.20;15.10
10304;DHT22;5197;48.152;8.590;2023-12-04T12:15:30;-0.20;15.20
10304;DHT22;5197;48.152;8.590;2023-12-04T12:17:58;-0.20;15.10
10304;DHT22;5197;48.152;8.590;2023-12-04T12:20:27;-0.20;15.20
10304;DHT22;5197;48.152;8.590;2023-12-04T12:22:54;-0.10;15.20
10304;DHT22;5197;48.152;8.590;2023-12-04T12:25:24;0.00;15.30
10304;DHT22;5197;48.152;8.590;2023-12-04T12:27:52;0.10;15.30
10304;DHT22;5197;48.152;8.590;2023-12-04T12:30:20;0.00;15.30
10304;DHT22;5197;48.152;8.590;2023-12-04T12:32:47;0.00;15.30
10304;DHT22;5197;48.152;8.590;2023-12-04T12:35:14;0.00;15.30
10304;DHT22;5197;48.152;8.590;2023-12-04T12:37:41;0.00;15.30
10304;DHT22;5197;48.152;8.590;2023-12-04T12:40:11;0.00;15.30
10304;DHT22;5197;48.152;8.590;2023-12-04T12:42:38;0.00;15.20
10304;DHT22;5197;48.152;8.590;2023-12-04T12:45:09;0.10;15.30
10304;DHT22;5197;48.152;8.590;2023-12-04T12:47:47;0.10;15.30
10304;DHT22;5197;48.152;8.590;2023-12-04T12:50:15;0.10;15.30
10304;DHT22;5197;48.152;8.590;2023-12-04T12:52:43;0.10;15.30
10304;DHT22;5197;48.152;8.590;2023-12-04T12:55:10;0.10;15.30
10304;DHT22;5197;48.152;8.590;2023-12-04T12:57:37;0.00;15.90
10304;DHT22;5197;48.152;8.590;2023-12-04T13:00:06;0.00;15.30
10304;DHT22;5197;48.152;8.590;2023-12-04T13:02:35;-0.10;15.10
10304;DHT22;5197;48.152;8.590;2023-12-04T13:05:03;-0.10;15.20
10304;DHT22;5197;48.152;8.590;2023-12-04T13:07:31;-0.10;15.20
10304;DHT22;5197;48.152;8.590;2023-12-04T13:09:59;-0.10;15.20
10304;DHT22;5197;48.152;8.590;2023-12-04T13:12:26;-0.10;15.30
10304;DHT22;5197;48.152;8.590;2023-12-04T13:14:53;-0.10;15.30
10304;DHT22;5197;48.152;8.590;2023-12-04T13:17:20;-0.10;15.20
10304;DHT22;5197;48.152;8.590;2023-12-04T13:19:47;-0.10;15.20
10304;DHT22;5197;48.152;8.590;2023-12-04T13:22:14;-0.10;15.30
10304;DHT22;5197;48.152;8.590;2023-12-04T13:24:41;-0.10;15.20
10304;DHT22;5197;48.152;8.590;2023-12-04T13:27:08;-0.10;15.30
10304;DHT22;5197;48.152;8.590;2023-12-04T13:29:36;-0.10;15.20
10304;DHT22;5197;48.152;8.590;2023-12-04T13:32:03;-0.10;15.20
10304;DHT22;5197;48.152;8.590;2023-12-04T13:34:31;-0.10;15.20
10304;DHT22;5197;48.152;8.590;2023-12-04T13:36:58;-0.10;15.20
10304;DHT22;5197;48.152;8.590;2023-12-04T13:39:26;-0.10;15.20
10304;DHT22;5197;48.152;8.590;2023-12-04T13:42:25;-0.10;15.30
10304;DHT22;5197;48.152;8.590;2023-12-04T13:45:11;-0.10;15.20
10304;DHT22;5197;48.152;8.590;2023-12-04T13:47:39;0.00;15.20
10304;DHT22;5197;48.152;8.590;2023-12-04T13:50:07;0.00;15.30
10304;DHT22;5197;48.152;8.590;2023-12-04T13:52:36;-0.10;15.20
10304;DHT22;5197;48.152;8.590;2023-12-04T13:55:05;-0.10;15.20
10304;DHT22;5197;48.152;8.590;2023-12-04T13:57:45;-0.10;15.20
10304;DHT22;5197;48.152;8.590;2023-12-04T14:00:42;0.00;15.20
10304;DHT22;5197;48.152;8.590;2023-12-04T14:03:10;-0.10;15.20
10304;DHT22;5197;48.152;8.590;2023-12-04T14:05:38;-0.10;15.20
10304;DHT22;5197;48.152;8.590;2023-12-04T14:08:05;-0.10;15.20
10304;DHT22;5197;48.152;8.590;2023-12-04T14:10:33;-0.10;15.20
10304;DHT22;5197;48.152;8.590;2023-12-04T14:13:01;-0.10;15.20
10304;DHT22;5197;48.152;8.590;2023-12-04T14:15:28;-0.20;15.20
10304;DHT22;5197;48.152;8.590;2023-12-04T14:17:55;-0.20;15.10
10304;DHT22;5197;48.152;8.590;2023-12-04T14:20:22;-0.20;15.10
10304;DHT22;5197;48.152;8.590;2023-12-04T14:22:49;-0.20;15.10
10304;DHT22;5197;48.152;8.590;2023-12-04T14:25:16;-0.20;15.10
10304;DHT22;5197;48.152;8.590;2023-12-04T14:27:44;-0.20;15.10
10304;DHT22;5197;48.152;8.590;2023-12-04T14:30:12;-0.20;15.10
10304;DHT22;5197;48.152;8.590;2023-12-04T14:32:39;-0.20;15.10
10304;DHT22;5197;48.152;8.590;2023-12-04T14:35:14;-0.20;15.10
10304;DHT22;5197;48.152;8.590;2023-12-04T14:37:43;-0.20;15.10
10304;DHT22;5197;48.152;8.590;2023-12-04T14:40:12;-0.20;15.10
10304;DHT22;5197;48.152;8.590;2023-12-04T14:42:40;-0.30;15.00
10304;DHT22;5197;48.152;8.590;2023-12-04T14:45:08;-0.30;15.00
10304;DHT22;5197;48.152;8.590;2023-12-04T14:47:36;-0.30;15.00
10304;DHT22;5197;48.152;8.590;2023-12-04T14:50:04;-0.40;15.00
10304;DHT22;5197;48.152;8.590;2023-12-04T14:52:31;-0.40;15.00
10304;DHT22;5197;48.152;8.590;2023-12-04T14:55:05;-0.30;15.10
10304;DHT22;5197;48.152;8.590;2023-12-04T14:57:36;-0.40;15.00
10304;DHT22;5197;48.152;8.590;2023-12-04T15:00:08;-0.30;15.10
10304;DHT22;5197;48.152;8.590;2023-12-04T15:02:54;-0.40;15.00
10304;DHT22;5197;48.152;8.590;2023-12-04T15:05:37;-0.40;15.00
10304;DHT22;5197;48.152;8.590;2023-12-04T15:08:24;-0.40;15.00
10304;DHT22;5197;48.152;8.590;2023-12-04T15:10:52;-0.40;15.00
10304;DHT22;5197;48.152;8.590;2023-12-04T15:13:37;0.30;15.40
10304;DHT22;5197;48.152;8.590;2023-12-04T15:16:22;-0.50;14.90
10304;DHT22;5197;48.152;8.590;2023-12-04T15:19:14;-0.50;14.90
10304;DHT22;5197;48.152;8.590;2023-12-04T15:22:00;-0.60;14.90
10304;DHT22;5197;48.152;8.590;2023-12-04T15:24:26;-0.60;15.60
10304;DHT22;5197;48.152;8.590;2023-12-04T15:26:54;-0.60;16.10
10304;DHT22;5197;48.152;8.590;2023-12-04T15:29:21;-0.60;16.40
10304;DHT22;5197;48.152;8.590;2023-12-04T15:31:49;-0.70;16.50
10304;DHT22;5197;48.152;8.590;2023-12-04T15:34:16;-0.60;17.50
10304;DHT22;5197;48.152;8.590;2023-12-04T15:36:45;-0.70;16.70
10304;DHT22;5197;48.152;8.590;2023-12-04T15:39:13;-0.70;17.00
10304;DHT22;5197;48.152;8.590;2023-12-04T15:41:43;-0.70;16.80
10304;DHT22;5197;48.152;8.590;2023-12-04T15:44:11;-0.60;17.00
10304;DHT22;5197;48.152;8.590;2023-12-04T15:46:39;-0.60;17.00
10304;DHT22;5197;48.152;8.590;2023-12-04T15:49:06;-0.60;17.40
10304;DHT22;5197;48.152;8.590;2023-12-04T15:51:33;-0.60;17.40
10304;DHT22;5197;48.152;8.590;2023-12-04T15:54:00;-0.70;17.50
10304;DHT22;5197;48.152;8.590;2023-12-04T15:56:28;-0.70;17.70
10304;DHT22;5197;48.152;8.590;2023-12-04T15:58:56;-0.60;17.90
10304;DHT22;5197;48.152;8.590;2023-12-04T16:01:24;-0.60;17.80